VTSS/HDY METAR and TAF weather

Enter ICAO airport designator
Station Type Date Time Source
VTSS METAR 2022/12/04 11:00 UTC NOAA

VTSS 041100Z 05003KT 270V080 9999 -RA FEW018CB SCT020 BKN100 25/25 Q1006 NOSIG


Station Type Date Time Source
VTSS Decoded METAR 2022/12/04 11:00 UTC NOAA

Hat Yai, Thailand (VTSS) 06-55N 100-26E 35M
Dec 04, 2022 - 06:00 AM EST / 2022.12.04 1100 UTC
Wind: from the NE (050 degrees) at 3 MPH (3 KT) (direction variable):0
Visibility: greater than 7 mile(s):0
Sky conditions: mostly cloudy
Weather: light rain; Cumulonimbus clouds observed
Temperature: 77 F (25 C)
Dew Point: 77 F (25 C)
Relative Humidity: 100%
Pressure (altimeter): 29.71 in. Hg (1006 hPa)
ob: VTSS 041100Z 05003KT 270V080 9999 -RA FEW018CB SCT020 BKN100 25/25 Q1006 NOSIG
cycle: 11

Station Type Date Time Source
VTSS TAF 2022/12/04 06:36 UTC NOAA

TAF VTSS 040500Z 0406/0506 02005KT 9999 SCT020 BKN100
TEMPO 0406/0415 VRB15G25KT 3000 TSRA FEW016CB SCT018 BKN100
BECMG 0415/0417 00000KT
BECMG 0502/0504 12003KT

Example: see airport list